Aeroporto :
LOGIN :

Iscrizione | Disclaimer

   EN    FR    IT 

 










Sommario :    VFR   VFR Marginale   IFR   IFR Intensivo   IFR Molto Intensivo
Visibilità : 
Base nubi : 
>= 8 km
>= 3000ft
5 / 8 km
1000 / 3000 ft
1500m / 5 km
500 / 1000 ft
800 / 1500m
200 / 500 ft
< 800m
< 200 ft
Simboli :   Temporali  Nebbia  Neve Forte  Precipitazioni Forti  Vento > 20 kt
SIGMETs :   Varie  Temporali  Ghiacco  Turbolenza  Onda orograficha  Ceneri Vulcaniche







- Altitudine del aeroporto : 1161 ft
- Codice IATA : RJL


LELO - Logroño-Agoncillo

ULTIMO METAR :
  • 152130Z 19002KT CAVOK 03/01 Q1029

METARs OBSOLETI :
  • 152100Z 00000KT CAVOK 03/01 Q1029
  • 152030Z VRB01KT CAVOK 03/01 Q1028
  • 152000Z 15003KT 110V180 CAVOK 04/02 Q1028
  • 151930Z VRB02KT CAVOK 05/02 Q1028
  • 151900Z 00000KT CAVOK 07/02 Q1028

TAF TAF LELO
Valido dal 15 a 18 ore il 16 a 03 ore UTC


151700Z 1518/1603 VRB05KT CAVOK
Nessun NOTAM noto per questo aeroporto.
1 SIGMET conosciuto per la FIR Madrid (LECM) :
 
Turbolenza severa
LECM SIGMET 1 VALID 151800/152200 LEVA
LECM MADRID FIR/UIR SEV TURB FCST W OF LINE N4459 W01033 - N4238 W01202 FL200/360 MOV E 15KT NC=



MetMap, La meteo Aeronautica in un colpo d'occhio ! - Copyright ORBIFLY Dicembre 2007 - Disclaimer

ORBIFLY MET'MAP TEAM :

Programmazione e sviluppo : Alexandra Zaïnal
Concezione e sviluppo : Baudouin d'Aumeries
Co-Programmazione e sviluppo : Marc-Olivier Méhu
Supporto tecnico e logistico : Manuel Goepfert
Aiuto per la traduzione : Arnaldo La Scala

Contatto : metmap@orbifly.com




FONTI E CREDITI :

   NOAA